Date,TemperatureHighF,TemperatureAvgF,TemperatureLowF,DewpointHighF,DewpointAvgF,DewpointLowF,HumidityHigh,HumidityAvg,HumidityLow,PressureMaxIn,PressureMinIn,WindSpeedMaxMPH,WindSpeedAvgMPH,GustSpeedMaxMPH,PrecipitationSumIn
2013-1-1,39.1,33.7,27.8,29.2,17.7,-4.4,93,55,16,25.24,25.16,20,8,0,0.00
2013-1-2,48.9,42.5,35.5,20.5,10.1,2.9,37,27,18,25.24,25.15,14,5,0,0.00
2013-1-3,52.1,47.1,44.3,23.8,17.8,4.8,37,31,19,25.19,25.15,11,2,0,0.00
2013-1-4,53.0,46.7,40.5,37.9,23.8,8.8,89,44,22,25.21,25.13,10,4,0,0.00
2013-1-5,47.8,39.4,30.4,39.3,32.0,-2.4,98,81,12,25.19,25.04,29,12,0,0.00
2013-1-6,31.6,30.0,28.4,31.1,29.4,27.6,98,98,97,25.20,25.03,11,2,0,0.00
2013-1-7,44.7,38.8,30.3,37.8,30.8,12.6,97,75,31,25.29,25.18,22,8,0,0.00
2013-1-8,59.2,49.6,43.8,37.1,31.6,-4.8,76,53,7,25.20,25.12,27,11,0,0.00
2013-1-9,59.0,44.5,25.9,38.5,28.6,9.9,97,61,14,25.14,24.90,23,8,0,0.00
2013-1-10,26.3,24.7,23.6,25.3,23.5,22.4,96,95,95,25.21,24.94,0,0,0,0.00
2013-1-11,27.9,25.6,22.9,27.2,24.6,21.7,97,96,95,25.27,25.17,0,0,0,0.00
2013-1-12,29.6,24.7,20.1,28.6,23.5,18.5,96,95,93,25.24,25.16,0,0,0,0.00
2013-1-13,30.4,24.9,20.9,23.7,12.9,0.5,94,61,31,25.26,25.19,13,1,0,0.00
2013-1-14,36.4,30.1,21.8,12.9,8.1,-0.4,63,40,24,25.37,25.22,21,8,0,0.00
2013-1-15,49.8,40.8,30.9,26.3,20.2,9.4,61,44,28,25.41,25.33,31,12,0,0.00
2013-1-16,59.7,53.7,46.6,27.6,18.9,14.0,33,25,18,25.33,25.17,12,5,0,0.00
2013-1-17,66.3,59.3,53.8,27.7,16.3,10.1,27,19,12,25.17,25.07,13,4,0,0.00
2013-1-18,60.4,54.2,49.7,24.0,14.1,3.0,35,21,14,25.13,25.07,10,2,0,0.00
2013-1-19,57.7,52.4,48.6,17.8,5.5,-3.4,24,15,10,25.17,25.11,17,6,0,0.00
2013-1-20,56.6,51.1,47.8,12.3,2.9,-9.3,22,14,8,25.16,25.10,15,7,0,0.00
2013-1-21,61.6,53.8,49.2,18.0,0.8,-14.4,22,12,6,25.15,25.07,20,8,0,0.00
2013-1-22,57.3,52.2,48.0,15.0,7.0,-0.9,25,16,10,25.08,25.01,30,11,0,0.00
2013-1-23,51.0,46.4,38.2,37.9,22.2,2.9,92,45,14,25.05,24.99,30,12,0,0.00
2013-1-24,46.8,43.7,39.1,46.3,42.9,36.6,99,97,84,25.17,25.01,22,6,0,0.00
2013-1-25,50.5,46.2,44.0,50.0,45.8,43.7,99,99,96,25.16,25.03,9,3,0,0.00
2013-1-26,44.5,35.2,27.7,44.4,34.3,16.4,100,97,44,25.02,24.97,10,3,0,0.00
2013-1-27,31.3,28.2,26.3,30.8,27.7,25.6,98,98,96,25.17,25.01,0,0,0,0.00
2013-1-28,31.9,29.2,25.4,31.5,28.6,24.7,99,97,90,25.29,25.16,1,0,0,0.00
2013-1-29,46.6,42.1,31.9,31.6,24.3,11.8,90,51,30,25.34,25.26,28,13,0,0.00
2013-1-30,54.1,47.7,42.0,33.9,25.6,-4.9,63,45,10,25.31,25.23,28,9,0,0.00
2013-1-31,61.7,54.2,48.6,35.8,10.2,-15.9,42,19,5,25.24,25.13,9,2,0,0.00